sensor_id;sensor_type;location;lat;lon;timestamp;temperature;humidity
51779;DHT22;37843;53.266;6.746;2022-08-25T16:07:47;37.80;90.00
51779;DHT22;37843;53.266;6.746;2022-08-25T16:10:13;38.90;65.40
51779;DHT22;37843;53.266;6.746;2022-08-25T16:12:39;38.60;64.00
51779;DHT22;37843;53.266;6.746;2022-08-25T16:15:06;38.50;64.10
51779;DHT22;37843;53.266;6.746;2022-08-25T16:17:32;38.30;63.60
51779;DHT22;37843;53.266;6.746;2022-08-25T16:19:58;38.20;64.00
51779;DHT22;37843;53.266;6.746;2022-08-25T16:22:24;38.10;64.30
51779;DHT22;37843;53.266;6.746;2022-08-25T16:24:50;38.20;64.00
51779;DHT22;37843;53.266;6.746;2022-08-25T16:27:16;38.30;64.30
51779;DHT22;37843;53.266;6.746;2022-08-25T17:55:40;38.50;64.20
51779;DHT22;37843;53.266;6.746;2022-08-25T17:58:11;36.40;67.60
51779;DHT22;37843;53.266;6.746;2022-08-25T18:00:38;36.00;68.50
51779;DHT22;37843;53.266;6.746;2022-08-25T18:05:32;35.50;69.20
51779;DHT22;37843;53.266;6.746;2022-08-25T18:15:18;34.80;69.90
51779;DHT22;37843;53.266;6.746;2022-08-25T18:17:45;33.30;71.90
51779;DHT22;37843;53.266;6.746;2022-08-25T18:20:12;32.90;72.70
51779;DHT22;37843;53.266;6.746;2022-08-25T18:22:39;32.60;73.30
51779;DHT22;37843;53.266;6.746;2022-08-25T18:25:09;32.30;74.20
51779;DHT22;37843;53.266;6.746;2022-08-25T18:27:36;32.10;74.80
51779;DHT22;37843;53.266;6.746;2022-08-25T18:30:03;31.80;75.60
51779;DHT22;37843;53.266;6.746;2022-08-25T18:32:29;31.60;76.30
51779;DHT22;37843;53.266;6.746;2022-08-25T18:34:55;31.40;76.40
51779;DHT22;37843;53.266;6.746;2022-08-25T18:37:21;31.20;76.90
51779;DHT22;37843;53.266;6.746;2022-08-25T18:40:06;31.00;77.50
51779;DHT22;37843;53.266;6.746;2022-08-25T18:42:52;30.80;78.10
51779;DHT22;37843;53.266;6.746;2022-08-25T18:45:20;30.60;78.70
51779;DHT22;37843;53.266;6.746;2022-08-25T18:47:48;30.40;79.30
51779;DHT22;37843;53.266;6.746;2022-08-25T18:50:18;30.20;79.50
51779;DHT22;37843;53.266;6.746;2022-08-25T18:55:11;30.00;80.00
51779;DHT22;37843;53.266;6.746;2022-08-25T18:57:37;29.80;80.90
51779;DHT22;37843;53.266;6.746;2022-08-25T19:00:04;29.60;81.20
51779;DHT22;37843;53.266;6.746;2022-08-25T19:02:30;29.50;81.80
51779;DHT22;37843;53.266;6.746;2022-08-25T19:04:56;29.40;82.00
51779;DHT22;37843;53.266;6.746;2022-08-25T19:07:22;29.30;82.50
51779;DHT22;37843;53.266;6.746;2022-08-25T19:09:48;29.20;82.90
51779;DHT22;37843;53.266;6.746;2022-08-25T19:14:40;29.10;83.10
51779;DHT22;37843;53.266;6.746;2022-08-25T19:17:06;28.90;83.80
51779;DHT22;37843;53.266;6.746;2022-08-25T19:19:32;28.80;84.40
51779;DHT22;37843;53.266;6.746;2022-08-25T19:34:18;28.70;84.70
51779;DHT22;37843;53.266;6.746;2022-08-25T19:36:45;28.30;87.90
51779;DHT22;37843;53.266;6.746;2022-08-25T19:39:13;28.20;88.40
51779;DHT22;37843;53.266;6.746;2022-08-25T20:03:39;28.20;89.10
51779;DHT22;37843;53.266;6.746;2022-08-25T20:06:05;27.70;91.10
51779;DHT22;37843;53.266;6.746;2022-08-25T20:08:30;27.60;91.30
51779;DHT22;37843;53.266;6.746;2022-08-25T20:10:56;27.50;91.40
51779;DHT22;37843;53.266;6.746;2022-08-25T20:13:22;27.50;91.60
51779;DHT22;37843;53.266;6.746;2022-08-25T20:15:48;27.40;91.90
51779;DHT22;37843;53.266;6.746;2022-08-25T20:18:14;27.30;92.00
51779;DHT22;37843;53.266;6.746;2022-08-25T20:20:42;27.30;92.20
51779;DHT22;37843;53.266;6.746;2022-08-25T20:23:07;27.30;92.50
51779;DHT22;37843;53.266;6.746;2022-08-25T20:25:51;27.20;92.70
51779;DHT22;37843;53.266;6.746;2022-08-25T20:28:17;27.10;92.80
51779;DHT22;37843;53.266;6.746;2022-08-25T20:30:44;27.10;93.10
51779;DHT22;37843;53.266;6.746;2022-08-25T20:33:09;27.00;93.30
51779;DHT22;37843;53.266;6.746;2022-08-25T20:35:35;27.00;93.40
51779;DHT22;37843;53.266;6.746;2022-08-25T20:38:01;26.90;93.60
51779;DHT22;37843;53.266;6.746;2022-08-25T20:40:29;26.90;93.70
51779;DHT22;37843;53.266;6.746;2022-08-25T20:42:59;26.80;93.70
51779;DHT22;37843;53.266;6.746;2022-08-25T20:45:29;26.80;93.80
51779;DHT22;37843;53.266;6.746;2022-08-25T20:47:54;26.60;93.90
51779;DHT22;37843;53.266;6.746;2022-08-25T20:50:20;26.60;93.90
51779;DHT22;37843;53.266;6.746;2022-08-25T20:52:48;26.50;94.30
51779;DHT22;37843;53.266;6.746;2022-08-25T20:55:16;26.60;94.50
51779;DHT22;37843;53.266;6.746;2022-08-25T20:57:42;26.60;95.10
51779;DHT22;37843;53.266;6.746;2022-08-25T21:00:08;26.50;94.90
51779;DHT22;37843;53.266;6.746;2022-08-25T21:02:34;26.60;95.00
51779;DHT22;37843;53.266;6.746;2022-08-25T21:05:00;26.60;95.10
51779;DHT22;37843;53.266;6.746;2022-08-25T21:07:26;26.50;95.20
51779;DHT22;37843;53.266;6.746;2022-08-25T21:09:52;26.50;95.30
51779;DHT22;37843;53.266;6.746;2022-08-25T21:12:18;26.50;95.40
51779;DHT22;37843;53.266;6.746;2022-08-25T21:14:44;26.50;95.20
51779;DHT22;37843;53.266;6.746;2022-08-25T21:17:12;26.50;95.30
51779;DHT22;37843;53.266;6.746;2022-08-25T21:19:38;26.40;95.40
51779;DHT22;37843;53.266;6.746;2022-08-25T21:22:04;26.40;95.50
51779;DHT22;37843;53.266;6.746;2022-08-25T21:24:30;26.30;95.80
51779;DHT22;37843;53.266;6.746;2022-08-25T21:26:57;26.30;95.90
51779;DHT22;37843;53.266;6.746;2022-08-25T21:29:26;26.30;96.10
51779;DHT22;37843;53.266;6.746;2022-08-25T21:31:52;26.20;96.20
51779;DHT22;37843;53.266;6.746;2022-08-25T21:34:19;26.20;96.40
51779;DHT22;37843;53.266;6.746;2022-08-25T21:36:45;26.10;96.50
51779;DHT22;37843;53.266;6.746;2022-08-25T21:39:12;26.10;96.70
51779;DHT22;37843;53.266;6.746;2022-08-25T21:41:39;26.10;96.80
51779;DHT22;37843;53.266;6.746;2022-08-25T21:44:07;26.10;97.00
51779;DHT22;37843;53.266;6.746;2022-08-25T21:46:35;26.10;97.10
51779;DHT22;37843;53.266;6.746;2022-08-25T21:49:02;26.00;97.20
51779;DHT22;37843;53.266;6.746;2022-08-25T21:51:32;26.00;97.30
51779;DHT22;37843;53.266;6.746;2022-08-25T21:54:04;25.90;97.50
